Latest Weather Observations for Roseworthy

IDS60901

Issued at 11:11 am CST Tuesday 18 June 2019 (issued every 10 minutes, with the page automatically refreshed every 10 minutes)

About weather observations | Map of Adelaide area stations | Latest observations for Adelaide area | Other Formats
Station Details ID: 023122 Name: ROSEWORTHY AWS Lat: -34.51 Lon: 138.68 Height: 65.0 m
Data from the previous 72 hours. | See also: Recent months at Roseworthy
Date/Time
CST
Temp
°C
App
Temp
°C
Dew
Point
°C
Rel
Hum
%
Delta-T
°C
Wind Press
QNH
hPa
Press
MSL
hPa
Rain since
9am
mm
Dir  Spd
km/h
Gust
km/h
Spd
kts
Gust
kts
18/11:00am 11.9 9.2 8.9 82 1.5 WSW 13 22 7 12 1025.1 1025.2 0.0
18/10:30am 10.8 8.9 9.1 89 0.8 SW 9 13 5 7 1025.2 1025.3 0.0
18/10:00am 11.3 9.9 9.6 89 0.9 SSW 7 11 4 6 1024.8 1024.9 0.0
18/09:30am 9.9 8.3 8.8 93 0.5 S 7 9 4 5 1024.4 1024.5 0.0
18/09:00am 9.1 7.1 8.8 98 0.1 SSW 9 20 5 11 1024.0 1024.1 1.6
18/08:30am 9.0 8.8 8.9 99 0.0 CALM 0 0 0 0 1023.5 1023.6 1.2
18/08:00am 7.4 5.4 7.3 99 0.0 SSW 7 9 4 5 1023.3 1023.4 1.2
18/07:30am 7.2 4.1 7.1 99 0.0 WNW 13 24 7 13 1022.9 1023.0 0.8
18/07:00am 5.8 2.7 5.7 99 0.0 NNW 11 13 6 7 1022.2 1022.3 0.4
18/06:30am 6.4 3.8 6.0 97 0.2 WSW 9 11 5 6 1021.7 1021.8 0.4
18/06:00am 7.8 5.5 7.4 97 0.2 SW 9 11 5 6 1021.4 1021.5 0.4
18/05:30am 7.3 4.6 7.2 99 0.0 WSW 11 15 6 8 1021.1 1021.2 0.4
18/05:00am 8.4 5.4 7.8 96 0.3 WSW 13 15 7 8 1020.8 1020.9 0.4
18/04:30am 9.1 6.6 8.2 94 0.4 SW 11 13 6 7 1020.6 1020.7 0.4
18/04:00am 9.5 5.9 8.4 93 0.5 SW 17 22 9 12 1020.6 1020.7 0.4
18/03:30am 9.1 5.5 8.2 94 0.4 W 17 22 9 12 1020.6 1020.7 0.4
18/03:00am 8.9 5.6 8.1 95 0.4 W 15 19 8 10 1020.5 1020.6 0.4
18/02:30am 10.3 6.4 8.6 89 0.8 WSW 19 24 10 13 1020.3 1020.4 0.4
18/02:00am 10.6 6.5 10.1 97 0.3 W 22 26 12 14 1019.9 1019.9 0.4
18/01:30am 10.9 8.7 10.9 100 0.0 W 13 20 7 11 1019.7 1019.7 0.4
18/01:00am 10.9 9.1 10.9 100 0.0 SW 11 17 6 9 1019.5 1019.5 0.4
18/12:30am 10.9 8.0 10.9 100 0.0 W 17 20 9 11 1019.2 1019.2 0.4
18/12:00am 10.3 5.5 10.3 100 0.0 NW 26 33 14 18 1019.1 1019.1 0.4
 
Date/Time
CST
Temp
°C
App
Temp
°C
Dew
Point
°C
Rel
Hum
%
Delta-T
°C
Wind Press
QNH
hPa
Press
MSL
hPa
Rain since
9am
mm
Dir  Spd
km/h
Gust
km/h
Spd
kts
Gust
kts
17/11:30pm 10.3 5.8 10.1 99 0.1 NNW 24 30 13 16 1019.1 1019.1 0.0
17/11:00pm 11.6 7.1 9.9 89 0.9 NW 24 30 13 16 1019.3 1019.3 0.0
17/10:30pm 11.1 6.9 9.7 91 0.7 NNW 22 26 12 14 1019.2 1019.2 0.0
17/10:00pm 10.8 6.9 9.4 91 0.7 NNW 20 24 11 13 1019.3 1019.3 0.0
17/09:30pm 11.0 7.1 9.6 91 0.7 NNW 20 24 11 13 1019.4 1019.4 0.0
17/09:00pm 11.6 7.0 9.5 87 1.1 NNW 24 32 13 17 1019.7 1019.7 0.0
17/08:30pm 11.3 7.4 9.6 89 0.9 NNW 20 24 11 13 1019.8 1019.8 0.0
17/08:00pm 10.9 7.1 9.7 92 0.6 N 20 24 11 13 1019.7 1019.7 0.0
17/07:30pm 9.9 6.5 9.3 96 0.3 N 17 20 9 11 1019.8 1019.8 0.0
17/06:30pm 10.9 7.8 10.3 96 0.3 N 17 - 9 - - 1019.7 -
17/06:00pm 10.7 8.3 10.1 96 0.3 N 13 - 7 - - 1019.6 -
17/05:30pm 11.1 8.3 9.9 92 0.6 NNW 15 17 8 9 1019.7 1019.7 0.0
17/05:00pm 12.3 9.3 10.5 89 0.9 NNW 17 22 9 12 1019.7 1019.7 0.0
17/04:30pm 12.8 8.1 10.7 87 1.1 NNW 26 32 14 17 1019.9 1019.9 0.0
17/04:00pm 13.3 8.7 11.0 86 1.2 NNW 26 32 14 17 1019.9 1019.9 0.0
17/03:30pm 13.6 9.0 11.0 84 1.4 N 26 33 14 18 1019.9 1019.9 0.0
17/03:00pm 14.2 10.3 10.8 80 1.8 NW 22 26 12 14 1020.0 1020.1 0.0
17/02:30pm 14.3 9.6 10.7 79 1.9 NW 26 32 14 17 1020.1 1020.2 0.0
17/02:00pm 14.7 9.9 11.7 82 1.6 NNW 28 35 15 19 1020.1 1020.2 0.0
17/01:30pm 14.5 11.2 11.7 83 1.5 NNW 20 28 11 15 1020.4 1020.5 0.0
17/01:00pm 14.7 10.8 12.2 85 1.4 NNW 24 30 13 16 1020.5 1020.6 0.0
17/12:30pm 15.6 12.0 12.9 84 1.5 NNW 24 32 13 17 1021.0 1021.1 0.0
17/12:00pm 15.0 11.2 12.3 84 1.5 NW 24 30 13 16 1021.6 1021.7 0.0
17/11:30am 14.3 10.5 12.3 88 1.1 NNW 24 32 13 17 1022.0 1022.1 0.0
17/11:00am 13.6 9.6 11.8 89 1.0 NNW 24 30 13 16 1022.2 1022.3 0.0
17/10:30am 13.3 9.4 12.2 93 0.6 NNW 24 30 13 16 1022.6 1022.7 0.0
17/10:00am 12.3 8.6 11.5 95 0.4 NNW 22 26 12 14 1022.6 1022.7 0.0
17/09:30am 11.0 7.4 9.9 93 0.6 N 19 22 10 12 1022.5 1022.6 0.0
17/09:00am 9.6 6.0 8.5 93 0.5 N 17 20 9 11 1022.6 1022.7 0.0
17/08:30am 9.3 6.0 8.2 93 0.5 N 15 17 8 9 1022.4 1022.5 0.0
17/08:00am 8.0 4.2 7.4 96 0.3 N 17 19 9 10 1022.5 1022.6 0.0
17/07:30am 6.3 2.2 6.2 99 0.0 NNE 17 19 9 10 1022.1 1022.2 0.0
17/07:00am 6.5 2.1 6.4 99 0.0 NNE 19 20 10 11 1022.0 1022.1 0.0
17/06:30am 6.5 2.1 6.4 99 0.0 NNE 19 20 10 11 1021.8 1021.9 0.0
17/06:00am 6.6 2.2 6.5 99 0.0 NNE 19 19 10 10 1021.7 1021.8 0.0
17/05:30am 6.8 2.2 6.7 99 0.0 NE 20 20 11 11 1021.5 1021.6 0.0
17/05:00am 6.8 2.4 6.7 99 0.0 NE 19 20 10 11 1021.5 1021.6 0.0
17/04:30am 7.0 2.7 6.9 99 0.0 NE 19 20 10 11 1021.7 1021.8 0.0
17/04:00am 6.9 2.6 6.8 99 0.0 NE 19 20 10 11 1021.7 1021.8 0.0
17/03:30am 6.6 2.6 6.5 99 0.0 NE 17 17 9 9 1021.9 1022.0 0.0
17/03:00am 6.6 2.6 6.5 99 0.0 NE 17 17 9 9 1022.1 1022.2 0.0
17/02:30am 7.2 2.9 6.9 98 0.1 NE 19 19 10 10 1022.2 1022.3 0.0
17/02:00am 7.7 3.5 7.3 97 0.2 NE 19 20 10 11 1022.2 1022.3 0.0
17/01:30am 7.4 3.5 7.3 99 0.0 NE 17 19 9 10 1022.2 1022.3 0.0
17/01:00am 7.1 3.9 7.0 99 0.0 NE 13 17 7 9 1022.4 1022.5 0.0
17/12:30am 7.1 4.3 7.0 99 0.0 NE 11 17 6 9 1022.8 1022.9 0.0
17/12:00am 7.2 3.3 7.1 99 0.0 NE 17 19 9 10 1022.9 1023.0 0.0
 
Date/Time
CST
Temp
°C
App
Temp
°C
Dew
Point
°C
Rel
Hum
%
Delta-T
°C
Wind Press
QNH
hPa
Press
MSL
hPa
Rain since
9am
mm
Dir  Spd
km/h
Gust
km/h
Spd
kts
Gust
kts
16/11:30pm 7.6 3.8 7.5 99 0.0 NE 17 17 9 9 1022.9 1023.0 0.0
16/11:00pm 7.9 4.2 7.8 99 0.0 NE 17 17 9 9 1022.8 1022.9 0.0
16/10:30pm 8.2 4.5 7.9 98 0.1 NE 17 20 9 11 1022.8 1022.9 0.0
16/10:00pm 8.4 4.7 8.1 98 0.1 NE 17 19 9 10 1023.0 1023.1 0.0
16/09:30pm 8.5 4.9 8.2 98 0.1 NE 17 19 9 10 1022.9 1023.0 0.0
16/09:00pm 8.6 5.3 8.2 97 0.2 NE 15 17 8 9 1022.9 1023.0 0.0
16/08:30pm 8.9 5.3 8.5 97 0.2 NE 17 17 9 9 1022.8 1022.9 0.0
16/08:00pm 8.8 5.6 8.5 98 0.1 NE 15 17 8 9 1022.7 1022.8 0.0
16/07:30pm 9.1 5.9 8.6 97 0.2 NE 15 17 8 9 1022.5 1022.6 0.0
16/07:00pm 9.2 6.1 8.9 98 0.1 NE 15 17 8 9 1022.3 1022.4 0.0
16/06:30pm 9.3 6.6 8.8 97 0.2 NE 13 15 7 8 1022.0 1022.1 0.0
16/06:00pm 10.1 8.6 9.2 94 0.4 NE 7 9 4 5 1021.8 1021.9 0.0
16/05:30pm 11.5 10.6 9.4 87 1.1 NE 4 6 2 3 1021.6 1021.7 0.0
16/05:00pm 14.7 13.6 10.1 74 2.4 N 6 7 3 4 1021.5 1021.6 0.0
16/04:30pm 15.8 14.1 9.9 68 3.1 NNW 9 11 5 6 1021.2 1021.3 0.0
16/04:00pm 15.9 14.9 10.2 69 3.0 SSW 6 7 3 4 1021.1 1021.2 0.0
16/03:30pm 15.9 15.5 9.8 67 3.2 S 2 7 1 4 1021.0 1021.1 0.0
16/03:00pm 16.6 16.4 10.5 67 3.2 NW 2 7 1 4 1021.1 1021.2 0.0
16/02:30pm 16.4 15.2 10.3 67 3.2 WNW 7 11 4 6 1020.8 1020.9 0.0
16/02:00pm 15.8 15.6 10.6 71 2.8 SW 2 9 1 5 1020.9 1021.0 0.0
16/01:30pm 15.1 13.5 10.3 73 2.5 WSW 9 13 5 7 1021.1 1021.2 0.0
16/01:00pm 15.7 14.2 10.7 72 2.7 WSW 9 15 5 8 1021.3 1021.4 0.0
16/12:30pm 15.6 13.5 11.2 75 2.4 W 13 22 7 12 1021.5 1021.6 0.0
16/12:00pm 15.0 13.0 10.2 73 2.5 W 11 15 6 8 1021.8 1021.9 0.0
16/11:30am 15.3 15.7 11.1 76 2.2 CALM 0 6 0 3 1022.0 1022.1 0.0
16/11:00am 14.5 12.9 10.3 76 2.2 NW 9 15 5 8 1022.3 1022.4 0.0
16/10:30am 14.0 11.3 10.4 79 1.9 NNW 15 17 8 9 1022.3 1022.4 0.0
16/10:00am 13.5 10.3 9.9 79 1.9 NNW 17 22 9 12 1022.3 1022.4 0.0
16/09:30am 12.9 10.5 9.9 82 1.5 NNW 13 15 7 8 1022.0 1022.1 0.0
16/09:00am 11.6 9.4 9.3 86 1.2 N 11 15 6 8 1021.8 1021.9 0.0
16/08:30am 11.0 8.3 8.8 86 1.1 N 13 17 7 9 1021.3 1021.4 0.0
16/08:00am 9.9 5.6 7.8 87 1.0 NNE 20 24 11 13 1020.6 1020.7 0.0
16/07:30am 8.9 4.5 7.2 89 0.8 NNE 20 24 11 13 1020.4 1020.5 0.0
16/07:00am 9.5 5.2 7.8 89 0.8 NNE 20 22 11 12 1020.0 1020.1 0.0
16/06:30am 9.6 5.5 8.0 90 0.8 NNE 19 20 10 11 1019.9 1019.9 0.0
16/06:00am 9.8 6.5 8.2 90 0.8 N 15 17 8 9 1019.8 1019.8 0.0
16/05:30am 10.3 6.3 8.4 88 0.9 NNE 19 20 10 11 1019.4 1019.4 0.0
16/05:00am 10.7 7.2 8.6 87 1.0 NNE 17 20 9 11 1019.3 1019.3 0.0
16/04:30am 10.9 7.0 8.7 86 1.1 N 19 22 10 12 1019.2 1019.2 0.0
16/04:00am 10.9 7.0 8.7 86 1.1 N 19 22 10 12 1019.2 1019.2 0.0
16/03:30am 11.1 7.1 8.3 83 1.4 N 19 20 10 11 1019.5 1019.5 0.0
16/03:00am 11.0 6.8 8.2 83 1.4 N 20 24 11 13 1019.6 1019.6 0.0
16/02:30am 10.6 7.0 8.4 86 1.1 NNE 17 20 9 11 1019.5 1019.5 0.0
16/02:00am 10.7 7.1 8.5 86 1.1 NNE 17 19 9 10 1019.6 1019.6 0.0
16/01:30am 11.4 7.9 8.6 83 1.4 N 17 19 9 10 1019.7 1019.7 0.0
16/01:00am 11.2 7.7 8.9 86 1.1 N 17 19 9 10 1019.7 1019.7 0.0
16/12:30am 11.3 7.8 8.7 84 1.3 N 17 20 9 11 1019.7 1019.7 0.0
16/12:00am 11.6 7.7 8.6 82 1.5 N 19 22 10 12 1019.8 1019.8 0.0
 
Date/Time
CST
Temp
°C
App
Temp
°C
Dew
Point
°C
Rel
Hum
%
Delta-T
°C
Wind Press
QNH
hPa
Press
MSL
hPa
Rain since
9am
mm
Dir  Spd
km/h
Gust
km/h
Spd
kts
Gust
kts
15/11:30pm 11.4 7.2 8.4 82 1.5 N 20 22 11 12 1019.9 1019.9 0.0
15/11:00pm 11.6 7.5 8.6 82 1.5 N 20 24 11 13 1020.0 1020.1 0.0
15/10:30pm 10.7 7.3 9.1 90 0.8 NNE 17 20 9 11 1020.1 1020.2 0.0
15/10:00pm 10.9 7.0 8.7 86 1.1 NNE 19 20 10 11 1020.1 1020.2 0.0
15/09:30pm 11.1 7.7 9.0 87 1.0 NNE 17 20 9 11 1020.3 1020.4 0.0
15/09:00pm 10.8 7.5 9.4 91 0.7 NNE 17 19 9 10 1020.3 1020.4 0.0
15/08:30pm 11.4 8.1 9.5 88 1.0 NNE 17 19 9 10 1020.3 1020.4 0.0
15/08:00pm 12.3 9.6 10.2 87 1.1 NNE 15 17 8 9 1020.4 1020.5 0.0
15/07:30pm 12.0 8.9 10.4 90 0.8 NNE 17 17 9 9 1020.4 1020.5 0.0
15/07:00pm 11.7 9.0 10.4 92 0.7 NNE 15 17 8 9 1020.3 1020.4 0.0
15/06:30pm 11.5 9.1 10.1 91 0.7 NNE 13 15 7 8 1020.1 1020.2 0.0
15/06:00pm 11.3 9.4 10.5 95 0.4 N 11 11 6 6 1020.1 1020.2 0.0
15/05:30pm 12.1 10.6 10.7 91 0.7 NNW 9 13 5 7 1020.1 1020.2 0.0
15/05:00pm 13.1 11.5 11.5 90 0.9 NNW 11 13 6 7 1020.0 1020.1 0.0
15/04:30pm 14.5 12.5 11.5 82 1.6 NW 13 15 7 8 1019.9 1019.9 0.0
15/04:00pm 15.3 13.1 12.2 82 1.7 NW 15 19 8 10 1019.8 1019.8 0.0
15/03:30pm 15.5 12.1 11.3 76 2.3 NW 20 28 11 15 1019.8 1019.8 0.0
15/03:00pm 15.9 11.8 11.5 75 2.4 NW 24 32 13 17 1019.9 1019.9 0.0
15/02:30pm 15.9 12.4 12.1 78 2.1 NW 22 28 12 15 1020.0 1020.1 0.0
15/02:00pm 15.9 12.1 12.3 79 2.0 NW 24 28 13 15 1020.2 1020.3 0.0
15/01:30pm 15.8 12.4 12.4 80 1.9 NW 22 28 12 15 1020.5 1020.6 0.0
15/01:00pm 16.0 13.8 13.3 84 1.5 NW 17 20 9 11 1020.7 1020.8 0.0
15/12:30pm 15.1 12.8 13.0 87 1.2 NNW 17 22 9 12 1020.9 1021.0 0.0
15/12:00pm 14.2 13.0 12.9 92 0.7 NNW 11 17 6 9 1021.4 1021.5 0.0
15/11:30am 13.7 12.2 13.1 96 0.3 N 13 17 7 9 1021.8 1021.9 0.0

Latest Capital City Observations: Canberra | Sydney | Melbourne | Brisbane | Adelaide | Perth | Hobart | Darwin

Other formats

Comma delimited format used in spreadsheet applications
http://www.bom.gov.au/fwo/IDS60901/IDS60901.95671.axf

JavaScript Object Notation format (JSON) in row-major order
http://www.bom.gov.au/fwo/IDS60901/IDS60901.95671.json

Data quality

Most of these data are generated automatically and are frequently updated. Quality checks on data are not normally performed. It is possible for incorrect values to appear. Refer to information at About Latest Weather Observations and please check the disclaimer before using these data.